createdAt,value
2023-03-31T00:00:31.055Z,83
2023-03-31T00:01:02.845Z,83
2023-03-31T00:01:34.020Z,83
2023-03-31T00:02:06.730Z,83
2023-03-31T00:02:38.028Z,83
2023-03-31T00:03:11.055Z,83
2023-03-31T00:03:42.107Z,83
2023-03-31T00:04:14.899Z,83
2023-03-31T00:04:46.586Z,83
2023-03-31T00:05:19.086Z,83
2023-03-31T00:05:50.032Z,83
2023-03-31T00:06:22.596Z,83
2023-03-31T00:06:54.517Z,83
2023-03-31T00:07:26.718Z,83
2023-03-31T00:07:58.015Z,83
2023-03-31T00:08:31.027Z,83
2023-03-31T00:09:02.229Z,83
2023-03-31T00:09:34.762Z,83
2023-03-31T00:10:17.140Z,83
2023-03-31T00:10:38.949Z,83
2023-03-31T00:11:10.061Z,83
2023-03-31T00:11:42.833Z,83
2023-03-31T00:12:14.115Z,83
2023-03-31T00:12:46.837Z,83
2023-03-31T00:13:18.076Z,83
2023-03-31T00:13:51.797Z,84
2023-03-31T00:14:22.219Z,84
2023-03-31T00:14:54.799Z,84
2023-03-31T00:15:27.088Z,84
2023-03-31T00:15:59.100Z,83
2023-03-31T00:16:30.045Z,83
2023-03-31T00:17:02.788Z,83
2023-03-31T00:17:34.089Z,83
2023-03-31T00:18:07.007Z,83
2023-03-31T00:18:38.036Z,83
2023-03-31T00:19:10.811Z,83
2023-03-31T00:19:42.017Z,83
2023-03-31T00:20:14.944Z,83
2023-03-31T00:20:45.981Z,83
2023-03-31T00:21:18.872Z,83
2023-03-31T00:21:50.019Z,83
2023-03-31T00:22:22.754Z,83
2023-03-31T00:22:53.994Z,83
2023-03-31T00:23:26.984Z,83
2023-03-31T00:23:57.882Z,83
2023-03-31T00:24:30.713Z,83
2023-03-31T00:25:02.390Z,83
2023-03-31T00:25:34.957Z,83
2023-03-31T00:26:06.188Z,83
2023-03-31T00:26:38.817Z,83
2023-03-31T00:27:10.073Z,83
2023-03-31T00:27:42.724Z,83
2023-03-31T00:28:14.038Z,83
2023-03-31T00:28:46.772Z,83
2023-03-31T00:29:17.932Z,83
2023-03-31T00:29:50.699Z,83
2023-03-31T00:30:23.044Z,83
2023-03-31T00:30:54.835Z,83
2023-03-31T00:31:25.922Z,83
2023-03-31T00:31:58.744Z,83
2023-03-31T00:32:30.012Z,83
2023-03-31T00:33:02.738Z,83
2023-03-31T00:33:34.046Z,83
2023-03-31T00:34:06.772Z,83
2023-03-31T00:34:37.828Z,83
2023-03-31T00:34:54.102Z,83
2023-03-31T00:35:26.282Z,83
2023-03-31T00:35:57.968Z,83
2023-03-31T00:36:30.699Z,83
2023-03-31T00:37:02.066Z,83
2023-03-31T00:37:34.833Z,83
2023-03-31T00:38:06.034Z,83
2023-03-31T00:38:38.753Z,83
2023-03-31T00:39:10.093Z,83
2023-03-31T00:39:42.707Z,83
2023-03-31T00:40:14.265Z,83
2023-03-31T00:40:46.732Z,83
2023-03-31T00:41:17.912Z,83
2023-03-31T00:41:50.846Z,83
2023-03-31T00:42:22.114Z,83
2023-03-31T00:42:54.629Z,83
2023-03-31T00:43:25.942Z,83
2023-03-31T00:43:58.816Z,83
2023-03-31T00:44:30.052Z,83
2023-03-31T00:45:03.972Z,83
2023-03-31T00:45:34.204Z,83
2023-03-31T00:46:07.105Z,83
2023-03-31T00:46:37.871Z,83
2023-03-31T00:46:54.011Z,83
2023-03-31T00:47:26.057Z,83
2023-03-31T00:47:58.032Z,83
2023-03-31T00:48:30.549Z,83
2023-03-31T00:49:02.147Z,83
2023-03-31T00:49:34.667Z,83
2023-03-31T00:50:06.127Z,83
2023-03-31T00:50:38.890Z,83
2023-03-31T00:51:09.876Z,83
2023-03-31T00:51:42.809Z,83
2023-03-31T00:52:14.094Z,83
2023-03-31T00:52:47.102Z,83
2023-03-31T00:53:17.958Z,83
2023-03-31T00:53:50.771Z,83
2023-03-31T00:54:22.061Z,83
2023-03-31T00:54:54.624Z,83
2023-03-31T00:55:26.284Z,84
2023-03-31T00:55:59.016Z,84
2023-03-31T00:56:29.976Z,84
2023-03-31T00:57:03.836Z,84
2023-03-31T00:57:33.936Z,84
2023-03-31T00:58:07.680Z,84
2023-03-31T00:58:37.827Z,84
2023-03-31T00:59:10.735Z,84
2023-03-31T00:59:42.072Z,84
2023-03-31T01:00:15.958Z,84
2023-03-31T01:00:45.997Z,84
2023-03-31T01:01:18.838Z,84
2023-03-31T01:01:50.013Z,84
2023-03-31T01:02:22.785Z,84
2023-03-31T01:02:54.157Z,84
2023-03-31T01:03:26.885Z,84
2023-03-31T01:03:58.204Z,84
2023-03-31T01:04:30.765Z,84
2023-03-31T01:05:02.645Z,84
2023-03-31T01:05:34.770Z,84
2023-03-31T01:06:06.158Z,84
2023-03-31T01:06:38.752Z,84
2023-03-31T01:07:09.990Z,84
2023-03-31T01:07:42.844Z,84
2023-03-31T01:08:13.903Z,84
2023-03-31T01:08:46.830Z,84
2023-03-31T01:09:18.067Z,84
2023-03-31T01:09:50.706Z,84
2023-03-31T01:10:22.244Z,84
2023-03-31T01:10:54.892Z,84
2023-03-31T01:11:25.903Z,84
2023-03-31T01:11:58.838Z,84
2023-03-31T01:12:30.009Z,84
2023-03-31T01:13:03.013Z,84
2023-03-31T01:13:33.877Z,84
2023-03-31T01:14:06.950Z,84
2023-03-31T01:14:38.050Z,84
2023-03-31T01:15:11.688Z,84
2023-03-31T01:15:42.060Z,84
2023-03-31T01:16:14.922Z,84
2023-03-31T01:16:45.986Z,85
2023-03-31T01:17:19.242Z,85
2023-03-31T01:17:50.129Z,85
2023-03-31T01:18:22.993Z,85
2023-03-31T01:18:54.063Z,85
2023-03-31T01:19:26.878Z,85
2023-03-31T01:19:58.152Z,85
2023-03-31T01:20:31.196Z,85
2023-03-31T01:21:02.039Z,85
2023-03-31T01:21:34.924Z,85
2023-03-31T01:22:06.217Z,85
2023-03-31T01:22:39.777Z,85
2023-03-31T01:23:10.169Z,85
2023-03-31T01:23:42.706Z,85
2023-03-31T01:24:14.257Z,84
2023-03-31T01:24:46.830Z,84
2023-03-31T01:25:18.269Z,84
2023-03-31T01:25:51.097Z,84
2023-03-31T01:26:21.961Z,84
2023-03-31T01:26:54.498Z,84
2023-03-31T01:27:26.224Z,84
2023-03-31T01:27:59.838Z,84
2023-03-31T01:28:30.097Z,84
2023-03-31T01:29:02.764Z,84
2023-03-31T01:29:34.100Z,85
2023-03-31T01:30:07.769Z,85
2023-03-31T01:30:38.159Z,85
2023-03-31T01:31:10.879Z,85
2023-03-31T01:31:42.145Z,85
2023-03-31T01:32:14.750Z,85
2023-03-31T01:32:46.214Z,85
2023-03-31T01:33:19.027Z,85
2023-03-31T01:33:50.007Z,85
2023-03-31T01:34:23.005Z,85
2023-03-31T01:34:54.193Z,85
2023-03-31T01:35:26.984Z,85
2023-03-31T01:35:58.057Z,85
2023-03-31T01:36:30.987Z,85
2023-03-31T01:37:02.100Z,85
2023-03-31T01:37:34.888Z,85
2023-03-31T01:38:06.094Z,86
2023-03-31T01:38:38.863Z,86
2023-03-31T01:39:09.700Z,86
2023-03-31T01:39:43.644Z,86
2023-03-31T01:40:14.408Z,85
2023-03-31T01:40:46.821Z,85
2023-03-31T01:41:18.763Z,85
2023-03-31T01:41:50.833Z,85
2023-03-31T01:42:22.058Z,85
2023-03-31T01:42:54.893Z,85
2023-03-31T01:43:25.991Z,85
2023-03-31T01:43:58.851Z,85
2023-03-31T01:44:30.102Z,85
2023-03-31T01:45:03.980Z,85
2023-03-31T01:45:33.991Z,85
2023-03-31T01:46:07.357Z,85
2023-03-31T01:46:37.937Z,85
2023-03-31T01:47:10.913Z,85
2023-03-31T01:47:42.067Z,85
2023-03-31T01:48:14.983Z,85
2023-03-31T01:48:46.057Z,85
2023-03-31T01:49:18.882Z,85
2023-03-31T01:49:50.094Z,85
2023-03-31T01:50:22.997Z,85
2023-03-31T01:50:54.020Z,85
2023-03-31T01:51:26.918Z,85
2023-03-31T01:51:58.125Z,85
2023-03-31T01:52:30.802Z,85
2023-03-31T01:53:02.021Z,85
2023-03-31T01:53:34.927Z,85
2023-03-31T01:54:05.783Z,85
2023-03-31T01:54:38.568Z,85
2023-03-31T01:55:10.281Z,85
2023-03-31T01:55:43.076Z,85
2023-03-31T01:56:13.938Z,85
2023-03-31T01:56:46.911Z,85
2023-03-31T01:57:18.145Z,85
2023-03-31T01:57:50.952Z,85
2023-03-31T01:58:21.989Z,85
2023-03-31T01:58:54.773Z,85
2023-03-31T01:59:26.063Z,85
2023-03-31T01:59:58.835Z,85
2023-03-31T02:00:31.870Z,85
2023-03-31T02:01:02.839Z,85
2023-03-31T02:01:36.295Z,85
2023-03-31T02:02:07.190Z,85
2023-03-31T02:02:38.286Z,85
2023-03-31T02:03:10.986Z,85
2023-03-31T02:03:42.226Z,85
2023-03-31T02:04:14.941Z,85
2023-03-31T02:04:46.392Z,85
2023-03-31T02:05:19.395Z,85
2023-03-31T02:05:50.185Z,85
2023-03-31T02:06:22.883Z,85
2023-03-31T02:06:54.020Z,85
2023-03-31T02:07:27.037Z,85
2023-03-31T02:07:58.174Z,85
2023-03-31T02:08:30.928Z,85
2023-03-31T02:09:02.214Z,85
2023-03-31T02:09:34.912Z,85
2023-03-31T02:10:06.656Z,84
2023-03-31T02:10:39.591Z,84
2023-03-31T02:11:10.144Z,84
2023-03-31T02:11:42.805Z,84
2023-03-31T02:12:13.983Z,84
2023-03-31T02:12:46.694Z,84
2023-03-31T02:13:18.137Z,84
2023-03-31T02:13:50.907Z,84
2023-03-31T02:14:22.008Z,84
2023-03-31T02:14:54.775Z,84
2023-03-31T02:15:27.107Z,84
2023-03-31T02:15:58.868Z,84
2023-03-31T02:16:30.014Z,84
2023-03-31T02:17:03.749Z,84
2023-03-31T02:17:34.180Z,84
2023-03-31T02:18:07.011Z,84
2023-03-31T02:18:38.064Z,84
2023-03-31T02:19:10.994Z,84
2023-03-31T02:19:42.091Z,84
2023-03-31T02:20:15.229Z,84
2023-03-31T02:20:46.166Z,84
2023-03-31T02:21:18.989Z,84
2023-03-31T02:21:49.888Z,84
2023-03-31T02:22:22.969Z,84
2023-03-31T02:22:54.004Z,84
2023-03-31T02:23:27.044Z,84
2023-03-31T02:23:58.073Z,84
2023-03-31T02:24:30.919Z,84
2023-03-31T02:25:02.534Z,84
2023-03-31T02:25:34.824Z,84
2023-03-31T02:26:06.330Z,84
2023-03-31T02:26:38.899Z,84
2023-03-31T02:27:10.035Z,84
2023-03-31T02:27:42.873Z,84
2023-03-31T02:28:14.146Z,84
2023-03-31T02:28:47.082Z,84
2023-03-31T02:29:18.083Z,84
2023-03-31T02:29:51.012Z,84
2023-03-31T02:30:23.136Z,84
2023-03-31T02:30:55.037Z,84
2023-03-31T02:31:26.368Z,83
2023-03-31T02:31:59.035Z,83
2023-03-31T02:32:30.185Z,83
2023-03-31T02:33:03.098Z,83
2023-03-31T02:33:34.204Z,83
2023-03-31T02:34:07.001Z,83
2023-03-31T02:34:38.120Z,83
2023-03-31T02:35:11.260Z,83
2023-03-31T02:35:42.247Z,83
2023-03-31T02:36:15.116Z,83
2023-03-31T02:36:46.191Z,83
2023-03-31T02:37:19.182Z,83
2023-03-31T02:37:50.297Z,83
2023-03-31T02:38:22.978Z,83
2023-03-31T02:38:54.033Z,83
2023-03-31T02:39:27.021Z,83
2023-03-31T02:39:58.123Z,83
2023-03-31T02:40:31.087Z,83
2023-03-31T02:41:02.082Z,83
2023-03-31T02:41:34.912Z,83
2023-03-31T02:42:05.937Z,83
2023-03-31T02:42:22.213Z,83
2023-03-31T02:42:53.955Z,83
2023-03-31T02:43:25.995Z,83
2023-03-31T02:44:00.608Z,83
2023-03-31T02:44:30.070Z,83
2023-03-31T02:45:04.002Z,83
2023-03-31T02:45:34.063Z,83
2023-03-31T02:46:08.242Z,83
2023-03-31T02:46:37.948Z,83
2023-03-31T02:47:10.760Z,83
2023-03-31T02:47:42.020Z,83
2023-03-31T02:48:14.832Z,83
2023-03-31T02:48:45.982Z,83
2023-03-31T02:49:18.846Z,83
2023-03-31T02:49:50.207Z,83
2023-03-31T02:50:23.034Z,83
2023-03-31T02:50:54.073Z,83
2023-03-31T02:51:26.875Z,83
2023-03-31T02:51:57.923Z,83
2023-03-31T02:52:30.897Z,83
2023-03-31T02:53:02.088Z,83
2023-03-31T02:53:34.977Z,83
2023-03-31T02:54:05.896Z,83
2023-03-31T02:54:38.821Z,83
2023-03-31T02:55:10.212Z,83
2023-03-31T02:55:42.829Z,83
2023-03-31T02:56:14.040Z,83
2023-03-31T02:56:47.777Z,83
2023-03-31T02:57:18.143Z,83
2023-03-31T02:57:50.861Z,83
2023-03-31T02:58:22.020Z,83
2023-03-31T02:58:54.937Z,83
2023-03-31T02:59:26.144Z,83
2023-03-31T02:59:59.647Z,83
2023-03-31T03:00:31.278Z,83
2023-03-31T03:01:02.777Z,83
2023-03-31T03:01:34.159Z,83
2023-03-31T03:02:07.224Z,83
2023-03-31T03:02:38.243Z,83
2023-03-31T03:03:10.866Z,83
2023-03-31T03:03:42.002Z,83
2023-03-31T03:04:14.890Z,83
2023-03-31T03:04:45.979Z,83
2023-03-31T03:05:19.164Z,83
2023-03-31T03:05:50.115Z,83
2023-03-31T03:06:22.934Z,83
2023-03-31T03:06:53.998Z,83
2023-03-31T03:07:26.892Z,83
2023-03-31T03:07:58.115Z,83
2023-03-31T03:08:30.622Z,83
2023-03-31T03:09:01.979Z,83
2023-03-31T03:09:34.835Z,83
2023-03-31T03:10:06.280Z,83
2023-03-31T03:10:41.641Z,83
2023-03-31T03:11:11.692Z,83
2023-03-31T03:11:42.863Z,83
2023-03-31T03:12:13.962Z,83
2023-03-31T03:12:47.040Z,83
2023-03-31T03:13:17.993Z,83
2023-03-31T03:13:50.967Z,83
2023-03-31T03:14:21.914Z,82
2023-03-31T03:14:54.858Z,82
2023-03-31T03:15:27.092Z,82
2023-03-31T03:15:59.036Z,82
2023-03-31T03:16:29.966Z,82
2023-03-31T03:17:03.022Z,82
2023-03-31T03:17:34.004Z,82
2023-03-31T03:18:07.059Z,82
2023-03-31T03:18:37.950Z,82
2023-03-31T03:19:11.074Z,82
2023-03-31T03:19:42.005Z,82
2023-03-31T03:20:15.215Z,82
2023-03-31T03:20:46.129Z,82
2023-03-31T03:21:18.852Z,82
2023-03-31T03:21:49.939Z,82
2023-03-31T03:22:22.922Z,82
2023-03-31T03:22:54.119Z,82
2023-03-31T03:23:26.841Z,82
2023-03-31T03:23:57.978Z,82
2023-03-31T03:24:31.005Z,82
2023-03-31T03:25:02.446Z,82
2023-03-31T03:25:34.784Z,82
2023-03-31T03:26:06.250Z,82
2023-03-31T03:26:39.618Z,82
2023-03-31T03:27:09.977Z,82
2023-03-31T03:27:42.834Z,82
2023-03-31T03:28:14.106Z,82
2023-03-31T03:28:47.832Z,82
2023-03-31T03:29:18.113Z,82
2023-03-31T03:29:50.887Z,82
2023-03-31T03:30:23.218Z,82
2023-03-31T03:30:54.977Z,82
2023-03-31T03:31:26.454Z,82
2023-03-31T03:31:58.861Z,82
2023-03-31T03:32:29.963Z,82
2023-03-31T03:33:02.863Z,82
2023-03-31T03:33:34.179Z,82
2023-03-31T03:34:06.974Z,82
2023-03-31T03:34:37.958Z,82
2023-03-31T03:35:11.120Z,82
2023-03-31T03:35:42.111Z,82
2023-03-31T03:36:14.799Z,82
2023-03-31T03:36:45.967Z,82
2023-03-31T03:37:18.799Z,82
2023-03-31T03:37:50.060Z,82
2023-03-31T03:38:22.725Z,82
2023-03-31T03:38:53.990Z,81
2023-03-31T03:39:26.824Z,81
2023-03-31T03:39:58.135Z,81
2023-03-31T03:40:31.241Z,81
2023-03-31T03:41:02.174Z,81
2023-03-31T03:41:34.836Z,81
2023-03-31T03:42:05.942Z,81
2023-03-31T03:42:38.816Z,81
2023-03-31T03:43:10.077Z,81
2023-03-31T03:43:42.997Z,81
2023-03-31T03:44:13.933Z,81
2023-03-31T03:44:47.001Z,81
2023-03-31T03:45:19.004Z,81
2023-03-31T03:45:51.096Z,81
2023-03-31T03:46:22.119Z,81
2023-03-31T03:46:54.853Z,81
2023-03-31T03:47:26.197Z,82
2023-03-31T03:47:58.854Z,82
2023-03-31T03:48:29.982Z,82
2023-03-31T03:49:02.946Z,82
2023-03-31T03:49:34.024Z,82
2023-03-31T03:50:07.073Z,82
2023-03-31T03:50:38.085Z,82
2023-03-31T03:51:10.782Z,82
2023-03-31T03:51:41.975Z,82
2023-03-31T03:52:15.012Z,82
2023-03-31T03:52:46.103Z,82
2023-03-31T03:53:18.711Z,82
2023-03-31T03:53:50.109Z,83
2023-03-31T03:54:22.971Z,83
2023-03-31T03:54:54.260Z,83
2023-03-31T03:55:27.278Z,83
2023-03-31T03:55:58.275Z,83
2023-03-31T03:56:31.071Z,83
2023-03-31T03:57:02.168Z,83
2023-03-31T03:57:34.881Z,83
2023-03-31T03:58:06.222Z,83
2023-03-31T03:58:39.127Z,83
2023-03-31T03:59:10.254Z,84
2023-03-31T03:59:43.984Z,84
2023-03-31T04:00:15.184Z,84
2023-03-31T04:00:47.145Z,84
2023-03-31T04:01:18.376Z,84
2023-03-31T04:01:51.262Z,84
2023-03-31T04:02:22.209Z,84
2023-03-31T04:02:55.094Z,84
2023-03-31T04:03:26.549Z,84
2023-03-31T04:03:59.243Z,84
2023-03-31T04:04:30.137Z,84
2023-03-31T04:05:03.375Z,84
2023-03-31T04:05:34.295Z,84
2023-03-31T04:06:07.357Z,84
2023-03-31T04:06:38.058Z,85
2023-03-31T04:07:11.380Z,85
2023-03-31T04:07:42.233Z,85
2023-03-31T04:08:15.171Z,85
2023-03-31T04:08:46.262Z,85
2023-03-31T04:09:19.115Z,85
2023-03-31T04:09:50.342Z,85
2023-03-31T04:10:25.403Z,85
2023-03-31T04:10:54.274Z,85
2023-03-31T04:11:27.139Z,85
2023-03-31T04:11:58.112Z,85
2023-03-31T04:12:31.136Z,85
2023-03-31T04:13:02.340Z,85
2023-03-31T04:13:34.965Z,85
2023-03-31T04:14:06.200Z,85
2023-03-31T04:14:39.175Z,85
2023-03-31T04:15:11.165Z,85
2023-03-31T04:15:43.190Z,85
2023-03-31T04:16:14.362Z,85
2023-03-31T04:16:47.174Z,85
2023-03-31T04:17:18.151Z,85
2023-03-31T04:17:50.861Z,85
2023-03-31T04:18:22.071Z,85
2023-03-31T04:18:54.902Z,85
2023-03-31T04:19:26.178Z,85
2023-03-31T04:19:58.980Z,85
2023-03-31T04:20:30.491Z,85
2023-03-31T04:21:02.756Z,85
2023-03-31T04:21:34.105Z,84
2023-03-31T04:22:07.207Z,84
2023-03-31T04:22:38.097Z,84
2023-03-31T04:23:10.973Z,84
2023-03-31T04:23:42.172Z,85
2023-03-31T04:24:15.184Z,85
2023-03-31T04:24:46.339Z,85
2023-03-31T04:25:19.374Z,85
2023-03-31T04:25:50.356Z,85
2023-03-31T04:26:23.081Z,85
2023-03-31T04:26:54.225Z,85
2023-03-31T04:27:27.371Z,85
2023-03-31T04:27:58.407Z,85
2023-03-31T04:28:32.045Z,85
2023-03-31T04:29:02.179Z,85
2023-03-31T04:29:35.185Z,85
2023-03-31T04:30:07.183Z,85
2023-03-31T04:30:40.116Z,85
2023-03-31T04:31:10.228Z,85
2023-03-31T04:31:43.315Z,85
2023-03-31T04:32:14.276Z,85
2023-03-31T04:32:46.984Z,85
2023-03-31T04:33:18.162Z,85
2023-03-31T04:33:50.860Z,85
2023-03-31T04:34:22.075Z,85
2023-03-31T04:34:55.798Z,85
2023-03-31T04:35:26.306Z,85
2023-03-31T04:35:58.865Z,85
2023-03-31T04:36:30.022Z,85
2023-03-31T04:37:02.950Z,85
2023-03-31T04:37:33.997Z,85
2023-03-31T04:38:06.748Z,85
2023-03-31T04:38:38.217Z,85
2023-03-31T04:39:11.000Z,85
2023-03-31T04:39:41.968Z,85
2023-03-31T04:40:15.149Z,85
2023-03-31T04:40:46.251Z,85
2023-03-31T04:41:18.974Z,85
2023-03-31T04:41:49.954Z,85
2023-03-31T04:42:23.001Z,85
2023-03-31T04:42:53.888Z,85
2023-03-31T04:43:27.044Z,85
2023-03-31T04:43:58.127Z,85
2023-03-31T04:44:31.780Z,85
2023-03-31T04:45:03.482Z,84
2023-03-31T04:45:35.040Z,84
2023-03-31T04:46:06.471Z,85
2023-03-31T04:46:38.736Z,85
2023-03-31T04:47:09.946Z,85
2023-03-31T04:47:43.021Z,85
2023-03-31T04:48:14.114Z,85
2023-03-31T04:48:47.692Z,85
2023-03-31T04:49:18.078Z,85
2023-03-31T04:49:51.023Z,85
2023-03-31T04:50:22.220Z,84
2023-03-31T04:50:54.964Z,84
2023-03-31T04:51:26.239Z,84
2023-03-31T04:51:59.022Z,84
2023-03-31T04:52:30.186Z,84
2023-03-31T04:53:03.104Z,84
2023-03-31T04:53:34.183Z,84
2023-03-31T04:54:07.142Z,84
2023-03-31T04:54:38.197Z,84
2023-03-31T04:55:11.134Z,84
2023-03-31T04:55:42.301Z,84
2023-03-31T04:56:14.949Z,84
2023-03-31T04:56:46.253Z,85
2023-03-31T04:57:19.233Z,85
2023-03-31T04:57:50.056Z,85
2023-03-31T04:58:22.924Z,85
2023-03-31T04:58:54.285Z,85
2023-03-31T04:59:27.289Z,85
2023-03-31T04:59:58.011Z,85
2023-03-31T05:00:31.797Z,85
2023-03-31T05:01:02.138Z,85
2023-03-31T05:01:34.930Z,85
2023-03-31T05:02:06.040Z,85
2023-03-31T05:02:38.966Z,85
2023-03-31T05:03:10.251Z,85
2023-03-31T05:03:42.898Z,85
2023-03-31T05:04:14.150Z,85
2023-03-31T05:04:46.894Z,85
2023-03-31T05:05:18.213Z,85
2023-03-31T05:05:50.811Z,85
2023-03-31T05:06:21.887Z,85
2023-03-31T05:06:54.983Z,85
2023-03-31T05:07:26.023Z,85
2023-03-31T05:07:58.891Z,85
2023-03-31T05:08:31.087Z,85
2023-03-31T05:09:02.770Z,85
2023-03-31T05:09:35.042Z,85
2023-03-31T05:10:07.003Z,85
2023-03-31T05:10:38.259Z,85
2023-03-31T05:11:11.410Z,85
2023-03-31T05:11:42.183Z,85
2023-03-31T05:12:15.297Z,85
2023-03-31T05:12:46.096Z,85
2023-03-31T05:13:19.042Z,85
2023-03-31T05:13:50.177Z,85
2023-03-31T05:14:22.994Z,85
2023-03-31T05:14:54.163Z,85
2023-03-31T05:15:28.034Z,85
2023-03-31T05:15:58.422Z,85
2023-03-31T05:16:30.926Z,85
2023-03-31T05:17:02.200Z,85
2023-03-31T05:17:35.203Z,85
2023-03-31T05:18:06.374Z,85
2023-03-31T05:18:38.846Z,85
2023-03-31T05:19:10.286Z,85
2023-03-31T05:19:43.034Z,85
2023-03-31T05:20:14.538Z,85
2023-03-31T05:20:46.860Z,85
2023-03-31T05:21:18.083Z,85
2023-03-31T05:21:50.981Z,85
2023-03-31T05:22:22.030Z,85
2023-03-31T05:22:55.962Z,85
2023-03-31T05:23:26.376Z,85
2023-03-31T05:23:58.769Z,85
2023-03-31T05:24:30.037Z,85
2023-03-31T05:25:03.361Z,85
2023-03-31T05:25:34.279Z,85
2023-03-31T05:26:07.224Z,85
2023-03-31T05:26:38.336Z,85
2023-03-31T05:27:11.150Z,85
2023-03-31T05:27:42.263Z,85
2023-03-31T05:28:15.254Z,85
2023-03-31T05:28:46.390Z,85
2023-03-31T05:29:19.127Z,85
2023-03-31T05:29:50.240Z,85
2023-03-31T05:30:24.164Z,85
2023-03-31T05:30:54.677Z,85
2023-03-31T05:31:27.050Z,85
2023-03-31T05:31:58.133Z,85
2023-03-31T05:32:31.345Z,85
2023-03-31T05:33:02.526Z,85
2023-03-31T05:33:34.904Z,85
2023-03-31T05:34:06.296Z,85
2023-03-31T05:34:39.179Z,85
2023-03-31T05:35:10.441Z,85
2023-03-31T05:35:43.161Z,85
2023-03-31T05:36:14.409Z,85
2023-03-31T05:36:47.064Z,85
2023-03-31T05:37:18.316Z,85
2023-03-31T05:37:51.117Z,85
2023-03-31T05:38:22.185Z,85
2023-03-31T05:38:55.048Z,85
2023-03-31T05:39:26.415Z,85
2023-03-31T05:40:00.002Z,85
2023-03-31T05:40:30.507Z,85
2023-03-31T05:41:03.081Z,85
2023-03-31T05:41:34.405Z,85
2023-03-31T05:42:07.017Z,85
2023-03-31T05:42:38.254Z,85
2023-03-31T05:43:11.174Z,85
2023-03-31T05:43:42.451Z,85
2023-03-31T05:44:14.891Z,85
2023-03-31T05:44:46.295Z,85
2023-03-31T05:45:20.037Z,85
2023-03-31T05:45:50.419Z,85
2023-03-31T05:46:23.102Z,85
2023-03-31T05:46:54.348Z,85
2023-03-31T05:47:27.406Z,85
2023-03-31T05:47:58.382Z,85
2023-03-31T05:48:31.192Z,85
2023-03-31T05:49:02.266Z,85
2023-03-31T05:49:34.822Z,85
2023-03-31T05:50:06.526Z,85
2023-03-31T05:50:39.076Z,85
2023-03-31T05:51:10.399Z,85
2023-03-31T05:51:42.985Z,85
2023-03-31T05:52:14.452Z,85
2023-03-31T05:52:47.016Z,85
2023-03-31T05:53:18.158Z,85
2023-03-31T05:53:51.089Z,85
2023-03-31T05:54:22.389Z,85
2023-03-31T05:54:55.162Z,85
2023-03-31T05:55:26.452Z,85
2023-03-31T05:55:59.107Z,85
2023-03-31T05:56:30.293Z,85
2023-03-31T05:57:03.031Z,85
2023-03-31T05:57:34.301Z,85
2023-03-31T05:58:07.280Z,85
2023-03-31T05:58:38.310Z,85
2023-03-31T05:59:11.085Z,85
2023-03-31T05:59:42.276Z,85
2023-03-31T06:00:15.817Z,85
2023-03-31T06:00:46.125Z,85
2023-03-31T06:01:18.967Z,85
2023-03-31T06:01:50.523Z,85
2023-03-31T06:02:23.366Z,85
2023-03-31T06:02:54.370Z,85
2023-03-31T06:03:27.197Z,85
2023-03-31T06:03:58.532Z,85
2023-03-31T06:04:31.031Z,85
2023-03-31T06:05:02.727Z,85
2023-03-31T06:05:35.299Z,85
2023-03-31T06:06:06.304Z,85
2023-03-31T06:06:39.115Z,85
2023-03-31T06:07:10.341Z,85
2023-03-31T06:07:46.206Z,85
2023-03-31T06:08:14.630Z,85
2023-03-31T06:08:48.142Z,85
2023-03-31T06:09:18.494Z,85
2023-03-31T06:09:51.090Z,85
2023-03-31T06:10:23.061Z,85
2023-03-31T06:10:55.100Z,85
2023-03-31T06:11:26.424Z,85
2023-03-31T06:11:58.974Z,85
2023-03-31T06:12:30.456Z,85
2023-03-31T06:13:03.388Z,85
2023-03-31T06:13:34.315Z,85
2023-03-31T06:14:07.123Z,85
2023-03-31T06:14:38.293Z,85
2023-03-31T06:15:12.390Z,85
2023-03-31T06:15:42.417Z,85
2023-03-31T06:16:15.379Z,85
2023-03-31T06:16:46.330Z,85
2023-03-31T06:17:19.065Z,85
2023-03-31T06:17:50.400Z,85
2023-03-31T06:18:23.159Z,85
2023-03-31T06:18:54.363Z,85
2023-03-31T06:19:27.914Z,85
2023-03-31T06:19:58.470Z,85
2023-03-31T06:20:31.482Z,85
2023-03-31T06:21:02.317Z,85
2023-03-31T06:21:35.940Z,85
2023-03-31T06:22:06.319Z,85
2023-03-31T06:22:41.012Z,85
2023-03-31T06:23:10.220Z,85
2023-03-31T06:23:43.087Z,85
2023-03-31T06:24:14.334Z,85
2023-03-31T06:24:47.241Z,85
2023-03-31T06:25:18.711Z,85
2023-03-31T06:25:52.059Z,85
2023-03-31T06:26:22.676Z,85
2023-03-31T06:26:57.157Z,85
2023-03-31T06:27:26.425Z,85
2023-03-31T06:27:59.364Z,85
2023-03-31T06:28:30.389Z,85
2023-03-31T06:29:04.321Z,85
2023-03-31T06:29:34.853Z,85
2023-03-31T06:30:09.130Z,85
2023-03-31T06:30:38.384Z,85
2023-03-31T06:31:11.255Z,85
2023-03-31T06:31:42.675Z,85
2023-03-31T06:32:15.344Z,85
2023-03-31T06:32:47.035Z,85
2023-03-31T06:33:19.512Z,85
2023-03-31T06:33:50.652Z,85
2023-03-31T06:34:23.350Z,85
2023-03-31T06:34:54.730Z,85
2023-03-31T06:35:34.647Z,85
2023-03-31T06:35:58.769Z,85
2023-03-31T06:36:30.709Z,85
2023-03-31T06:37:02.891Z,85
2023-03-31T06:37:34.523Z,85
2023-03-31T06:38:07.577Z,85
2023-03-31T06:38:38.671Z,85
2023-03-31T06:39:11.485Z,85
2023-03-31T06:39:42.642Z,85
2023-03-31T06:40:15.949Z,85
2023-03-31T06:40:46.774Z,85
2023-03-31T06:41:19.492Z,85
2023-03-31T06:41:50.606Z,85
2023-03-31T06:42:23.552Z,85
2023-03-31T06:42:54.575Z,85
2023-03-31T06:43:27.308Z,85
2023-03-31T06:43:58.506Z,85
2023-03-31T06:44:31.317Z,85
2023-03-31T06:45:04.381Z,85
2023-03-31T06:45:35.619Z,85
2023-03-31T06:46:07.202Z,85
2023-03-31T06:46:40.649Z,85
2023-03-31T06:47:10.650Z,85
2023-03-31T06:47:43.717Z,85
2023-03-31T06:48:14.770Z,85
2023-03-31T06:48:47.622Z,85
2023-03-31T06:49:18.666Z,85
2023-03-31T06:49:51.714Z,85
2023-03-31T06:50:22.904Z,85
2023-03-31T06:50:55.537Z,86
2023-03-31T06:51:26.904Z,86
2023-03-31T06:52:00.883Z,86
2023-03-31T06:52:30.789Z,86
2023-03-31T06:53:03.606Z,86
2023-03-31T06:53:34.741Z,86
2023-03-31T06:54:07.345Z,86
2023-03-31T06:54:38.619Z,86
2023-03-31T06:55:11.718Z,86
2023-03-31T06:55:42.700Z,86
2023-03-31T06:56:15.436Z,86
2023-03-31T06:56:46.747Z,86
2023-03-31T06:57:19.821Z,86
2023-03-31T06:57:50.561Z,86
2023-03-31T06:58:23.474Z,86
2023-03-31T06:58:54.766Z,86
2023-03-31T06:59:27.504Z,86
2023-03-31T06:59:58.652Z,86
2023-03-31T07:00:33.308Z,86
2023-03-31T07:01:02.948Z,86
2023-03-31T07:01:35.754Z,86
2023-03-31T07:02:06.676Z,86
2023-03-31T07:02:39.789Z,87
2023-03-31T07:03:10.931Z,87
2023-03-31T07:03:43.346Z,87
2023-03-31T07:04:14.694Z,87
2023-03-31T07:04:49.559Z,87
2023-03-31T07:05:18.980Z,87
2023-03-31T07:05:51.525Z,87
2023-03-31T07:06:22.651Z,87
2023-03-31T07:06:55.484Z,87
2023-03-31T07:07:26.727Z,87
2023-03-31T07:08:01.084Z,87
2023-03-31T07:08:30.979Z,87
2023-03-31T07:09:03.704Z,87
2023-03-31T07:09:34.684Z,87
2023-03-31T07:10:07.810Z,87
2023-03-31T07:10:38.617Z,87
2023-03-31T07:11:11.674Z,87
2023-03-31T07:11:42.648Z,87
2023-03-31T07:12:16.492Z,88
2023-03-31T07:12:46.691Z,88
2023-03-31T07:13:19.407Z,88
2023-03-31T07:13:50.769Z,88
2023-03-31T07:14:23.578Z,88
2023-03-31T07:14:54.672Z,88
2023-03-31T07:15:28.723Z,88
2023-03-31T07:15:58.761Z,88
2023-03-31T07:16:31.528Z,88
2023-03-31T07:17:02.808Z,88
2023-03-31T07:17:35.366Z,88
2023-03-31T07:18:06.827Z,88
2023-03-31T07:18:41.396Z,88
2023-03-31T07:19:10.626Z,88
2023-03-31T07:19:43.560Z,88
2023-03-31T07:20:15.125Z,88
2023-03-31T07:20:47.724Z,88
2023-03-31T07:21:18.749Z,88
2023-03-31T07:21:51.593Z,88
2023-03-31T07:22:22.794Z,88
2023-03-31T07:22:58.732Z,88
2023-03-31T07:23:26.844Z,88
2023-03-31T07:23:59.458Z,88
2023-03-31T07:24:30.512Z,88
2023-03-31T07:25:03.679Z,88
2023-03-31T07:25:34.593Z,88
2023-03-31T07:26:07.441Z,88
2023-03-31T07:26:38.474Z,88
2023-03-31T07:27:11.616Z,88
2023-03-31T07:27:42.422Z,88
2023-03-31T07:28:15.338Z,89
2023-03-31T07:28:46.424Z,89
2023-03-31T07:29:19.597Z,88
2023-03-31T07:29:52.211Z,88
2023-03-31T07:30:24.426Z,89
2023-03-31T07:30:54.544Z,89
2023-03-31T07:31:27.190Z,89
2023-03-31T07:31:58.586Z,89
2023-03-31T07:32:31.355Z,89
2023-03-31T07:33:02.487Z,89
2023-03-31T07:33:35.276Z,89
2023-03-31T07:34:06.677Z,89
2023-03-31T07:34:39.426Z,89
2023-03-31T07:35:10.661Z,89
2023-03-31T07:35:43.417Z,89